createdAt,value
2023-02-28T00:01:36.315Z,62.70
2023-02-28T00:04:06.378Z,62.76
2023-02-28T00:06:34.880Z,62.95
2023-02-28T00:09:03.646Z,62.52
2023-02-28T00:11:32.334Z,62.63
2023-02-28T00:14:01.326Z,62.96
2023-02-28T00:16:29.584Z,63.23
2023-02-28T00:18:58.287Z,63.30
2023-02-28T00:21:28.593Z,63.12
2023-02-28T00:23:57.377Z,63.45
2023-02-28T00:26:25.952Z,63.21
2023-02-28T00:28:54.713Z,63.32
2023-02-28T00:31:24.936Z,62.89
2023-02-28T00:33:53.467Z,63.81
2023-02-28T00:36:23.104Z,63.29
2023-02-28T00:38:52.790Z,63.21
2023-02-28T00:41:21.549Z,63.27
2023-02-28T00:43:50.054Z,63.84
2023-02-28T00:46:18.572Z,63.57
2023-02-28T00:48:47.168Z,63.77
2023-02-28T00:51:16.830Z,64.29
2023-02-28T00:53:45.035Z,63.88
2023-02-28T00:56:14.624Z,64.07
2023-02-28T00:58:43.177Z,64.14
2023-02-28T01:01:11.625Z,64.67
2023-02-28T01:03:41.032Z,64.66
2023-02-28T01:06:09.509Z,64.38
2023-02-28T01:08:37.977Z,64.26
2023-02-28T01:11:11.479Z,64.99
2023-02-28T01:13:43.702Z,65.08
2023-02-28T01:16:15.116Z,65.20
2023-02-28T01:18:43.723Z,64.98
2023-02-28T01:21:14.800Z,65.00
2023-02-28T01:23:44.022Z,65.56
2023-02-28T01:26:14.517Z,65.55
2023-02-28T01:28:44.386Z,65.45
2023-02-28T01:31:13.185Z,65.80
2023-02-28T01:33:42.045Z,65.77
2023-02-28T01:36:15.122Z,65.96
2023-02-28T01:38:44.680Z,65.66
2023-02-28T01:41:19.492Z,65.72
2023-02-28T01:44:04.648Z,65.90
2023-02-28T01:46:34.478Z,66.27
2023-02-28T01:49:13.349Z,66.34
2023-02-28T01:51:47.254Z,66.46
2023-02-28T01:54:18.753Z,66.27
2023-02-28T01:56:54.109Z,66.73
2023-02-28T01:59:28.885Z,66.30
2023-02-28T02:01:57.903Z,66.33
2023-02-28T02:04:33.664Z,67.14
2023-02-28T02:07:02.557Z,66.78
2023-02-28T02:09:31.042Z,67.49
2023-02-28T02:12:03.515Z,67.03
2023-02-28T02:14:50.366Z,67.59
2023-02-28T02:17:30.051Z,67.44
2023-02-28T02:20:43.847Z,67.23
2023-02-28T02:23:56.024Z,67.48
2023-02-28T02:27:00.520Z,67.40
2023-02-28T02:30:11.047Z,67.58
2023-02-28T02:33:05.088Z,68.41
2023-02-28T02:35:41.354Z,67.91
2023-02-28T02:38:18.114Z,67.90
2023-02-28T02:40:54.480Z,68.36
2023-02-28T02:43:30.730Z,67.99
2023-02-28T02:46:06.371Z,68.34
2023-02-28T02:48:40.833Z,68.45
2023-02-28T02:51:16.542Z,68.97
2023-02-28T02:53:51.269Z,69.05
2023-02-28T02:56:24.095Z,68.56
2023-02-28T02:58:55.610Z,68.91
2023-02-28T03:01:29.774Z,68.92
2023-02-28T03:03:59.400Z,69.02
2023-02-28T03:06:29.106Z,69.12
2023-02-28T03:08:57.367Z,69.69
2023-02-28T03:11:27.396Z,69.42
2023-02-28T03:14:33.029Z,69.47
2023-02-28T03:17:48.231Z,69.71
2023-02-28T03:20:26.216Z,69.94
2023-02-28T03:23:09.262Z,69.78
2023-02-28T03:25:46.038Z,69.93
2023-02-28T03:28:20.567Z,70.08
2023-02-28T03:30:54.931Z,70.13
2023-02-28T03:33:26.489Z,69.88
2023-02-28T03:36:02.020Z,69.97
2023-02-28T03:38:37.958Z,70.46
2023-02-28T03:41:16.155Z,70.39
2023-02-28T03:43:51.236Z,70.47
2023-02-28T03:46:24.263Z,70.81
2023-02-28T03:48:59.580Z,70.96
2023-02-28T03:51:31.174Z,70.78
2023-02-28T03:54:07.064Z,70.59
2023-02-28T03:56:41.008Z,70.95
2023-02-28T03:59:16.043Z,70.72
2023-02-28T04:01:46.742Z,71.31
2023-02-28T04:04:16.260Z,71.04
2023-02-28T04:06:45.288Z,71.17
2023-02-28T04:09:16.617Z,70.78
2023-02-28T04:11:48.305Z,71.08
2023-02-28T04:14:16.841Z,71.00
2023-02-28T04:16:45.621Z,71.19
2023-02-28T04:19:15.371Z,71.13
2023-02-28T04:21:46.647Z,71.30
2023-02-28T04:24:18.602Z,71.11
2023-02-28T04:26:49.393Z,71.12
2023-02-28T04:29:24.407Z,71.17
2023-02-28T04:31:54.436Z,71.19
2023-02-28T04:34:24.499Z,71.59
2023-02-28T04:37:11.522Z,71.33
2023-02-28T04:39:43.018Z,71.74
2023-02-28T04:42:12.001Z,71.95
2023-02-28T04:44:40.578Z,72.13
2023-02-28T04:47:09.225Z,71.70
2023-02-28T04:49:37.878Z,72.43
2023-02-28T04:52:08.415Z,72.03
2023-02-28T04:54:36.996Z,72.49
2023-02-28T04:57:06.949Z,72.35
2023-02-28T04:59:35.516Z,72.23
2023-02-28T05:02:07.604Z,72.29
2023-02-28T05:04:36.474Z,72.65
2023-02-28T05:07:05.172Z,72.51
2023-02-28T05:09:34.889Z,72.28
2023-02-28T05:12:03.303Z,73.18
2023-02-28T05:14:32.982Z,72.56
2023-02-28T05:17:01.485Z,72.42
2023-02-28T05:19:30.016Z,72.79
2023-02-28T05:21:58.260Z,72.79
2023-02-28T05:24:27.021Z,72.88
2023-02-28T05:26:56.737Z,72.96
2023-02-28T05:29:25.494Z,73.18
2023-02-28T05:31:55.438Z,73.47
2023-02-28T05:34:24.147Z,73.69
2023-02-28T05:36:52.618Z,72.99
2023-02-28T05:39:21.315Z,72.95
2023-02-28T05:41:49.792Z,72.96
2023-02-28T05:44:18.332Z,73.57
2023-02-28T05:46:46.831Z,73.53
2023-02-28T05:49:16.547Z,73.44
2023-02-28T05:51:45.045Z,73.48
2023-02-28T05:54:14.051Z,73.80
2023-02-28T05:56:45.036Z,73.66
2023-02-28T05:59:13.665Z,73.74
2023-02-28T06:01:48.797Z,73.78
2023-02-28T06:04:31.748Z,73.75
2023-02-28T06:07:00.774Z,73.83
2023-02-28T06:09:30.010Z,74.27
2023-02-28T06:12:00.458Z,73.82
2023-02-28T06:14:28.986Z,73.70
2023-02-28T06:16:59.170Z,73.69
2023-02-28T06:19:29.655Z,74.57
2023-02-28T06:22:00.843Z,73.83
2023-02-28T06:24:32.610Z,73.92
2023-02-28T06:27:06.282Z,73.97
2023-02-28T06:29:36.230Z,73.90
2023-02-28T06:32:04.930Z,73.88
2023-02-28T06:34:35.832Z,73.82
2023-02-28T06:37:04.103Z,73.76
2023-02-28T06:39:32.714Z,73.68
2023-02-28T06:42:01.346Z,74.15
2023-02-28T06:44:36.360Z,74.02
2023-02-28T06:47:06.555Z,74.14
2023-02-28T06:49:38.306Z,73.98
2023-02-28T06:52:06.739Z,74.57
2023-02-28T06:54:34.920Z,74.29
2023-02-28T06:57:03.475Z,74.13
2023-02-28T06:59:32.076Z,74.10
2023-02-28T07:02:01.348Z,74.05
2023-02-28T07:04:30.300Z,74.34
2023-02-28T07:06:59.993Z,74.07
2023-02-28T07:09:30.907Z,73.76
2023-02-28T07:12:00.046Z,73.55
2023-02-28T07:14:28.318Z,73.86
2023-02-28T07:16:56.589Z,73.50
2023-02-28T07:19:24.792Z,73.29
2023-02-28T07:21:53.274Z,73.36
2023-02-28T07:24:24.689Z,73.17
2023-02-28T07:26:53.252Z,73.16
2023-02-28T07:29:21.756Z,73.08
2023-02-28T07:31:51.569Z,73.12
2023-02-28T07:34:20.121Z,73.19
2023-02-28T07:36:48.395Z,73.34
2023-02-28T07:39:16.967Z,73.54
2023-02-28T07:41:46.554Z,72.88
2023-02-28T07:44:15.211Z,72.96
2023-02-28T07:46:43.849Z,73.35
2023-02-28T07:49:12.435Z,72.78
2023-02-28T07:51:40.961Z,72.71
2023-02-28T07:54:09.752Z,72.33
2023-02-28T07:56:38.002Z,72.61
2023-02-28T07:59:07.595Z,72.49
2023-02-28T08:01:36.124Z,72.28
2023-02-28T08:04:04.737Z,72.20
2023-02-28T08:06:33.296Z,72.19
2023-02-28T08:09:01.805Z,71.84
2023-02-28T08:11:30.813Z,71.75
2023-02-28T08:13:59.790Z,71.40
2023-02-28T08:16:29.437Z,71.12
2023-02-28T08:18:57.930Z,70.91
2023-02-28T08:21:26.138Z,70.56
2023-02-28T08:23:54.562Z,70.50
2023-02-28T08:26:23.209Z,70.48
2023-02-28T08:28:51.910Z,70.10
2023-02-28T08:31:21.120Z,69.63
2023-02-28T08:33:52.853Z,68.86
2023-02-28T08:36:21.908Z,68.46
2023-02-28T08:38:50.455Z,67.82
2023-02-28T08:41:19.252Z,67.54
2023-02-28T08:43:47.953Z,66.70
2023-02-28T08:46:16.627Z,66.40
2023-02-28T08:48:45.368Z,66.40
2023-02-28T08:51:19.584Z,66.14
2023-02-28T08:53:50.285Z,65.93
2023-02-28T08:56:19.111Z,65.67
2023-02-28T08:58:48.930Z,65.50
2023-02-28T09:01:19.848Z,65.65
2023-02-28T09:03:49.813Z,64.56
2023-02-28T09:06:21.735Z,64.45
2023-02-28T09:08:50.412Z,64.35
2023-02-28T09:11:19.927Z,64.25
2023-02-28T09:13:48.816Z,64.04
2023-02-28T09:16:19.426Z,63.72
2023-02-28T09:18:48.072Z,63.37
2023-02-28T09:21:19.860Z,63.48
2023-02-28T09:23:51.157Z,62.86
2023-02-28T09:26:23.182Z,62.64
2023-02-28T09:28:52.084Z,62.57
2023-02-28T09:31:23.677Z,62.51
2023-02-28T09:33:54.617Z,62.44
2023-02-28T09:36:34.548Z,62.16
2023-02-28T09:39:10.814Z,61.73
2023-02-28T09:41:48.408Z,61.30
2023-02-28T09:44:24.610Z,60.67
2023-02-28T09:47:00.416Z,60.31
2023-02-28T09:49:40.885Z,60.44
2023-02-28T09:52:15.959Z,59.80
2023-02-28T09:54:44.592Z,59.59
2023-02-28T09:57:23.513Z,59.17
2023-02-28T10:00:18.204Z,59.29
2023-02-28T10:03:08.769Z,58.88
2023-02-28T10:05:44.359Z,57.50
2023-02-28T10:08:18.664Z,57.12
2023-02-28T10:10:50.417Z,56.51
2023-02-28T10:13:26.918Z,55.86
2023-02-28T10:16:00.704Z,54.78
2023-02-28T10:18:38.266Z,53.97
2023-02-28T10:21:07.987Z,53.36
2023-02-28T10:23:39.562Z,53.25
2023-02-28T10:26:14.777Z,50.83
2023-02-28T10:28:44.216Z,51.88
2023-02-28T10:31:18.411Z,51.72
2023-02-28T10:33:47.744Z,51.49
2023-02-28T10:36:21.096Z,50.58
2023-02-28T10:38:52.162Z,48.84
2023-02-28T10:41:35.632Z,50.13
2023-02-28T10:44:22.235Z,49.72
2023-02-28T10:46:52.698Z,49.55
2023-02-28T10:49:25.409Z,49.44
2023-02-28T10:51:57.803Z,49.03
2023-02-28T10:54:32.420Z,48.82
2023-02-28T10:57:20.845Z,49.32
2023-02-28T10:59:53.874Z,49.32
2023-02-28T11:02:35.954Z,49.65
2023-02-28T11:05:23.934Z,49.08
2023-02-28T11:07:54.972Z,48.62
2023-02-28T11:10:31.480Z,48.49
2023-02-28T11:13:01.193Z,48.59
2023-02-28T11:15:32.628Z,48.10
2023-02-28T11:18:04.523Z,48.06
2023-02-28T11:20:36.285Z,48.22
2023-02-28T11:23:07.175Z,48.00
2023-02-28T11:25:40.369Z,47.79
2023-02-28T11:28:27.502Z,47.40
2023-02-28T11:31:20.304Z,46.41
2023-02-28T11:33:51.847Z,45.86
2023-02-28T11:36:25.583Z,45.83
2023-02-28T11:38:55.843Z,45.40
2023-02-28T11:41:58.159Z,44.90
2023-02-28T11:44:43.839Z,45.14
2023-02-28T11:47:22.344Z,44.79
2023-02-28T11:50:05.042Z,44.50
2023-02-28T11:52:47.499Z,44.19
2023-02-28T11:55:21.717Z,43.87
2023-02-28T11:58:18.627Z,44.01
2023-02-28T12:01:11.112Z,43.73
2023-02-28T12:03:51.601Z,43.49
2023-02-28T12:06:27.277Z,43.13
2023-02-28T12:09:07.375Z,42.92
2023-02-28T12:11:49.997Z,42.70
2023-02-28T12:15:05.696Z,42.80
2023-02-28T12:17:48.526Z,42.17
2023-02-28T12:20:28.394Z,41.92
2023-02-28T12:23:16.877Z,41.94
2023-02-28T12:26:00.142Z,42.10
2023-02-28T12:28:36.047Z,41.49
2023-02-28T12:31:12.146Z,41.23
2023-02-28T12:33:47.048Z,41.36
2023-02-28T12:36:22.188Z,41.20
2023-02-28T12:38:58.734Z,41.14
2023-02-28T12:41:36.442Z,41.16
2023-02-28T12:44:12.447Z,41.10
2023-02-28T12:46:46.246Z,41.19
2023-02-28T12:49:18.874Z,40.83
2023-02-28T12:51:48.896Z,40.71
2023-02-28T12:54:27.146Z,41.16
2023-02-28T12:57:08.396Z,41.12
2023-02-28T12:59:43.991Z,41.71
2023-02-28T13:02:41.496Z,41.98
2023-02-28T13:05:42.240Z,42.13
2023-02-28T13:08:48.064Z,41.77
2023-02-28T13:11:27.886Z,41.42
2023-02-28T13:14:07.117Z,41.09
2023-02-28T13:17:05.051Z,41.30
2023-02-28T13:19:39.274Z,40.66
2023-02-28T13:22:18.753Z,40.73
2023-02-28T13:24:52.362Z,40.40
2023-02-28T13:27:41.448Z,40.90
2023-02-28T13:31:02.552Z,41.05
2023-02-28T13:33:32.943Z,40.44
2023-02-28T13:36:30.319Z,41.25
2023-02-28T13:39:01.586Z,40.65
2023-02-28T13:41:51.548Z,41.03
2023-02-28T13:44:24.577Z,40.32
2023-02-28T13:47:29.763Z,40.82
2023-02-28T13:50:23.377Z,40.60
2023-02-28T13:53:17.145Z,40.42
2023-02-28T13:55:50.782Z,40.09
2023-02-28T13:58:43.062Z,40.63
2023-02-28T14:01:27.339Z,40.47
2023-02-28T14:04:41.440Z,41.13
2023-02-28T14:07:11.654Z,40.56
2023-02-28T14:09:47.794Z,40.97
2023-02-28T14:12:55.573Z,41.80
2023-02-28T14:15:49.331Z,41.70
2023-02-28T14:18:27.278Z,40.97
2023-02-28T14:21:03.459Z,40.87
2023-02-28T14:24:06.100Z,41.21
2023-02-28T14:27:23.747Z,41.32
2023-02-28T14:30:52.048Z,41.43
2023-02-28T14:33:34.402Z,40.85
2023-02-28T14:36:14.101Z,40.87
2023-02-28T14:38:49.274Z,41.15
2023-02-28T14:41:24.238Z,41.11
2023-02-28T14:44:00.456Z,41.05
2023-02-28T14:46:35.295Z,40.95
2023-02-28T14:49:05.230Z,41.76
2023-02-28T14:51:34.490Z,41.11
2023-02-28T14:54:04.426Z,40.98
2023-02-28T14:56:38.772Z,41.30
2023-02-28T14:59:26.708Z,41.51
2023-02-28T15:02:10.333Z,41.30
2023-02-28T15:04:38.930Z,41.65
2023-02-28T15:07:10.873Z,41.58
2023-02-28T15:09:39.372Z,41.66
2023-02-28T15:12:08.310Z,41.66
2023-02-28T15:14:40.640Z,41.70
2023-02-28T15:17:20.040Z,41.78
2023-02-28T15:19:54.133Z,41.86
2023-02-28T15:22:30.255Z,41.76
2023-02-28T15:24:59.412Z,41.90
2023-02-28T15:27:32.965Z,41.85
2023-02-28T15:30:14.450Z,41.87
2023-02-28T15:32:43.167Z,41.79
2023-02-28T15:35:30.214Z,42.23
2023-02-28T15:38:02.531Z,42.14
2023-02-28T15:40:33.925Z,42.23
2023-02-28T15:43:08.227Z,42.44
2023-02-28T15:45:43.377Z,42.51
2023-02-28T15:48:20.575Z,42.96
2023-02-28T15:50:53.372Z,42.56
2023-02-28T15:53:26.174Z,42.59
2023-02-28T15:56:00.918Z,42.83
2023-02-28T15:58:29.933Z,42.90
2023-02-28T16:01:23.007Z,43.11
2023-02-28T16:03:55.146Z,43.11
2023-02-28T16:06:42.599Z,43.43
2023-02-28T16:09:15.110Z,43.34
2023-02-28T16:11:50.345Z,43.44
2023-02-28T16:14:23.983Z,43.65
2023-02-28T16:16:57.353Z,43.72
2023-02-28T16:19:25.969Z,43.67
2023-02-28T16:21:54.466Z,43.76
2023-02-28T16:24:23.145Z,43.78
2023-02-28T16:26:55.583Z,43.67
2023-02-28T16:29:28.990Z,43.86
2023-02-28T16:31:58.839Z,43.90
2023-02-28T16:34:27.406Z,43.92
2023-02-28T16:36:56.343Z,43.90
2023-02-28T16:39:24.527Z,44.16
2023-02-28T16:41:53.671Z,43.97
2023-02-28T16:44:28.848Z,44.19
2023-02-28T16:46:58.686Z,44.08
2023-02-28T16:49:27.870Z,44.32
2023-02-28T16:51:57.311Z,44.50
2023-02-28T16:54:25.581Z,44.67
2023-02-28T16:56:54.631Z,44.66
2023-02-28T16:59:26.939Z,44.68
2023-02-28T17:01:56.966Z,44.74
2023-02-28T17:04:27.238Z,44.97
2023-02-28T17:06:55.480Z,45.02
2023-02-28T17:09:36.597Z,45.26
2023-02-28T17:12:10.412Z,45.43
2023-02-28T17:14:38.967Z,45.39
2023-02-28T17:17:07.979Z,45.69
2023-02-28T17:19:39.218Z,45.43
2023-02-28T17:22:09.959Z,45.72
2023-02-28T17:24:38.148Z,46.02
2023-02-28T17:27:06.941Z,45.88
2023-02-28T17:29:35.447Z,45.91
2023-02-28T17:32:17.062Z,46.05
2023-02-28T17:34:47.638Z,46.15
2023-02-28T17:37:16.217Z,46.25
2023-02-28T17:39:44.760Z,46.39
2023-02-28T17:42:13.168Z,46.38
2023-02-28T17:44:41.697Z,46.54
2023-02-28T17:47:14.072Z,46.90
2023-02-28T17:49:42.691Z,47.13
2023-02-28T17:52:12.251Z,46.91
2023-02-28T17:54:40.653Z,46.74
2023-02-28T17:57:12.828Z,46.92
2023-02-28T17:59:42.983Z,46.98
2023-02-28T18:02:13.512Z,47.43
2023-02-28T18:04:41.962Z,47.12
2023-02-28T18:07:14.278Z,47.25
2023-02-28T18:09:42.845Z,47.42
2023-02-28T18:12:11.341Z,47.65
2023-02-28T18:14:40.002Z,48.00
2023-02-28T18:17:08.542Z,48.06
2023-02-28T18:19:36.813Z,47.86
2023-02-28T18:22:07.181Z,48.01
2023-02-28T18:24:36.933Z,48.45
2023-02-28T18:27:06.543Z,48.67
2023-02-28T18:29:35.029Z,48.50
2023-02-28T18:32:03.805Z,48.78
2023-02-28T18:34:32.580Z,49.07
2023-02-28T18:37:01.341Z,48.83
2023-02-28T18:39:31.297Z,49.00
2023-02-28T18:42:00.891Z,49.36
2023-02-28T18:44:29.426Z,49.16
2023-02-28T18:46:58.027Z,49.36
2023-02-28T18:49:26.595Z,49.75
2023-02-28T18:51:55.124Z,49.59
2023-02-28T18:54:23.641Z,49.71
2023-02-28T18:56:53.900Z,49.93
2023-02-28T18:59:23.565Z,50.13
2023-02-28T19:01:52.122Z,50.18
2023-02-28T19:04:20.633Z,50.41
2023-02-28T19:06:49.495Z,50.46
2023-02-28T19:09:17.985Z,50.65
2023-02-28T19:11:46.546Z,50.69
2023-02-28T19:14:15.041Z,51.04
2023-02-28T19:16:45.035Z,51.08
2023-02-28T19:19:13.940Z,51.15
2023-02-28T19:21:42.484Z,51.37
2023-02-28T19:24:10.996Z,51.40
2023-02-28T19:26:39.552Z,51.29
2023-02-28T19:29:07.971Z,51.59
2023-02-28T19:31:36.211Z,51.74
2023-02-28T19:34:05.810Z,51.85
2023-02-28T19:36:34.298Z,52.12
2023-02-28T19:39:02.508Z,52.02
2023-02-28T19:41:31.068Z,52.10
2023-02-28T19:43:59.803Z,52.17
2023-02-28T19:46:29.236Z,52.36
2023-02-28T19:48:57.997Z,52.39
2023-02-28T19:51:28.672Z,52.57
2023-02-28T19:53:56.882Z,52.68
2023-02-28T19:56:26.003Z,52.72
2023-02-28T19:58:54.521Z,52.68
2023-02-28T20:01:23.075Z,52.94
2023-02-28T20:03:53.089Z,52.98
2023-02-28T20:06:21.612Z,53.17
2023-02-28T20:08:52.265Z,53.10
2023-02-28T20:11:21.729Z,53.23
2023-02-28T20:13:49.913Z,53.34
2023-02-28T20:16:18.684Z,53.43
2023-02-28T20:18:51.240Z,53.47
2023-02-28T20:21:20.123Z,53.65
2023-02-28T20:23:50.424Z,53.40
2023-02-28T20:26:20.325Z,53.74
2023-02-28T20:28:49.471Z,53.88
2023-02-28T20:31:20.767Z,54.05
2023-02-28T20:33:50.529Z,53.87
2023-02-28T20:36:22.733Z,53.85
2023-02-28T20:38:53.926Z,54.03
2023-02-28T20:41:23.021Z,54.22
2023-02-28T20:43:55.517Z,54.15
2023-02-28T20:46:24.154Z,54.28
2023-02-28T20:48:52.729Z,54.45
2023-02-28T20:51:21.699Z,54.44
2023-02-28T20:53:50.556Z,54.70
2023-02-28T20:56:23.611Z,54.58
2023-02-28T20:58:55.839Z,54.85
2023-02-28T21:01:26.719Z,54.88
2023-02-28T21:03:58.181Z,55.05
2023-02-28T21:06:29.102Z,55.19
2023-02-28T21:08:58.241Z,55.20
2023-02-28T21:11:31.290Z,55.28
2023-02-28T21:14:04.897Z,55.51
2023-02-28T21:16:36.609Z,55.43
2023-02-28T21:19:06.297Z,55.73
2023-02-28T21:21:38.339Z,55.64
2023-02-28T21:24:07.726Z,55.79
2023-02-28T21:26:37.610Z,55.68
2023-02-28T21:29:06.223Z,55.98
2023-02-28T21:31:36.618Z,55.91
2023-02-28T21:34:09.422Z,56.08
2023-02-28T21:36:41.006Z,56.20
2023-02-28T21:39:13.591Z,56.41
2023-02-28T21:41:43.436Z,56.17
2023-02-28T21:44:18.426Z,56.64
2023-02-28T21:46:48.169Z,56.61
2023-02-28T21:49:17.092Z,56.81
2023-02-28T21:51:45.851Z,56.63
2023-02-28T21:54:14.980Z,56.67
2023-02-28T21:56:44.566Z,56.87
2023-02-28T21:59:13.146Z,56.99
2023-02-28T22:01:44.101Z,57.28
2023-02-28T22:04:20.884Z,56.99
2023-02-28T22:06:51.050Z,57.46
2023-02-28T22:09:20.471Z,57.35
2023-02-28T22:11:50.305Z,57.48
2023-02-28T22:14:19.172Z,57.63
2023-02-28T22:16:51.740Z,57.68
2023-02-28T22:19:23.018Z,57.60
2023-02-28T22:21:53.650Z,57.94
2023-02-28T22:24:24.310Z,57.84
2023-02-28T22:26:54.535Z,58.32
2023-02-28T22:29:23.136Z,58.10
2023-02-28T22:31:52.019Z,58.36
2023-02-28T22:34:21.358Z,58.19
2023-02-28T22:36:49.866Z,58.34
2023-02-28T22:39:18.432Z,58.61
2023-02-28T22:41:46.911Z,58.56
2023-02-28T22:44:16.546Z,58.96
2023-02-28T22:46:45.078Z,58.76
2023-02-28T22:49:13.811Z,59.18
2023-02-28T22:51:42.393Z,58.96
2023-02-28T22:54:11.100Z,59.20
2023-02-28T22:56:39.654Z,59.38
2023-02-28T22:59:08.576Z,59.32
2023-02-28T23:01:38.208Z,59.55
2023-02-28T23:04:07.463Z,59.61
2023-02-28T23:06:42.011Z,59.38
2023-02-28T23:09:14.418Z,59.05
2023-02-28T23:11:45.576Z,59.67
2023-02-28T23:14:16.316Z,59.73
2023-02-28T23:16:48.492Z,60.02
2023-02-28T23:19:20.225Z,59.79
2023-02-28T23:21:49.366Z,59.94
2023-02-28T23:24:21.147Z,59.73
2023-02-28T23:26:51.857Z,59.83
2023-02-28T23:29:22.231Z,59.83
2023-02-28T23:31:52.733Z,60.33
2023-02-28T23:34:26.226Z,60.21
2023-02-28T23:36:56.069Z,60.20
2023-02-28T23:39:26.493Z,60.38
2023-02-28T23:41:55.054Z,60.69
2023-02-28T23:44:23.544Z,60.46
2023-02-28T23:46:54.534Z,60.69
2023-02-28T23:49:23.825Z,60.68
2023-02-28T23:51:54.298Z,60.76
2023-02-28T23:54:23.231Z,61.18
2023-02-28T23:56:51.885Z,61.50
2023-02-28T23:59:20.913Z,61.75
